createdAt,value
2023-04-01T00:01:51.786Z,7.30
2023-04-01T00:06:53.920Z,7.07
2023-04-01T00:11:57.474Z,6.22
2023-04-01T00:16:59.619Z,7.28
2023-04-01T00:22:01.790Z,7.03
2023-04-01T00:27:05.833Z,7.20
2023-04-01T00:32:08.036Z,7.60
2023-04-01T00:37:10.958Z,8.32
2023-04-01T00:42:14.665Z,8.43
2023-04-01T00:47:16.973Z,9.50
2023-04-01T00:52:23.629Z,9.73
2023-04-01T00:57:32.417Z,9.18
2023-04-01T01:02:35.697Z,9.75
2023-04-01T01:07:46.178Z,10.85
2023-04-01T01:12:58.497Z,10.40
2023-04-01T01:18:07.702Z,11.15
2023-04-01T01:23:33.336Z,11.02
2023-04-01T01:28:54.049Z,11.80
2023-04-01T01:34:12.847Z,11.95
2023-04-01T01:39:17.955Z,13.25
2023-04-01T01:44:22.355Z,11.73
2023-04-01T01:49:26.052Z,13.05
2023-04-01T01:54:29.684Z,15.25
2023-04-01T01:59:34.639Z,14.52
2023-04-01T02:04:41.571Z,14.70
2023-04-01T02:09:45.246Z,14.35
2023-04-01T02:14:53.370Z,14.90
2023-04-01T02:20:00.015Z,13.45
2023-04-01T02:25:08.156Z,14.85
2023-04-01T02:30:11.525Z,15.23
2023-04-01T02:35:16.454Z,14.23
2023-04-01T02:40:20.531Z,14.18
2023-04-01T02:45:22.602Z,13.65
2023-04-01T02:50:24.687Z,13.80
2023-04-01T02:55:28.547Z,11.60
2023-04-01T03:00:30.721Z,13.38
2023-04-01T03:05:33.072Z,14.70
2023-04-01T03:10:36.861Z,12.88
2023-04-01T03:15:39.019Z,13.02
2023-04-01T03:20:41.140Z,12.48
2023-04-01T03:25:44.845Z,12.48
2023-04-01T03:30:46.988Z,12.55
2023-04-01T03:35:49.167Z,13.18
2023-04-01T03:40:52.717Z,12.23
2023-04-01T03:45:55.118Z,12.88
2023-04-01T03:50:57.249Z,12.43
2023-04-01T03:56:05.391Z,13.07
2023-04-01T04:01:15.946Z,13.23
2023-04-01T04:06:19.878Z,12.32
2023-04-01T04:11:24.102Z,12.75
2023-04-01T04:16:26.458Z,11.57
2023-04-01T04:21:28.899Z,11.68
2023-04-01T04:26:32.449Z,12.00
2023-04-01T04:31:34.788Z,14.60
2023-04-01T04:36:37.019Z,13.60
2023-04-01T04:41:41.666Z,12.48
2023-04-01T04:46:43.954Z,12.05
2023-04-01T04:51:46.370Z,13.25
2023-04-01T04:56:52.190Z,14.38
2023-04-01T05:01:54.334Z,12.20
2023-04-01T05:06:56.506Z,12.50
2023-04-01T05:12:00.175Z,11.48
2023-04-01T05:17:02.386Z,14.70
2023-04-01T05:22:04.760Z,12.35
2023-04-01T05:27:08.406Z,13.63
2023-04-01T05:32:10.615Z,13.98
2023-04-01T05:37:12.734Z,14.07
2023-04-01T05:42:16.381Z,12.68
2023-04-01T05:47:18.526Z,12.65
2023-04-01T05:52:20.784Z,13.30
2023-04-01T05:57:24.378Z,13.52
2023-04-01T06:02:26.712Z,13.70
2023-04-01T06:07:30.221Z,13.18
2023-04-01T06:12:46.617Z,13.30
2023-04-01T06:18:02.892Z,12.93
2023-04-01T06:23:30.282Z,11.30
2023-04-01T06:29:04.574Z,12.77
2023-04-01T06:34:21.655Z,12.25
2023-04-01T06:39:43.564Z,11.30
2023-04-01T06:45:01.197Z,10.38
2023-04-01T06:50:12.700Z,11.53
2023-04-01T06:55:27.053Z,10.38
2023-04-01T07:00:33.808Z,12.25
2023-04-01T07:05:36.511Z,11.45
2023-04-01T07:10:47.915Z,11.63
2023-04-01T07:16:07.095Z,10.95
2023-04-01T07:21:18.380Z,11.77
2023-04-01T07:26:23.624Z,14.90
2023-04-01T07:31:43.194Z,12.52
2023-04-01T07:36:51.345Z,9.82
2023-04-01T07:41:59.910Z,2.78
2023-04-01T07:47:34.158Z,1.80
2023-04-01T07:52:44.306Z,2.30
2023-04-01T07:57:53.780Z,1.30
2023-04-01T08:03:17.153Z,1.20
2023-04-01T08:08:31.290Z,1.50
2023-04-01T08:13:41.084Z,1.48
2023-04-01T08:18:53.385Z,1.60
2023-04-01T08:23:58.668Z,1.05
2023-04-01T08:29:05.402Z,1.27
2023-04-01T08:34:15.745Z,1.40
2023-04-01T08:39:24.978Z,1.10
2023-04-01T08:44:53.389Z,1.33
2023-04-01T08:50:36.124Z,0.80
2023-04-01T08:56:01.638Z,1.27
2023-04-01T09:01:18.945Z,1.20
2023-04-01T09:06:38.945Z,1.10
2023-04-01T09:12:00.165Z,1.30
2023-04-01T09:17:47.674Z,1.25
2023-04-01T09:23:10.676Z,1.08
2023-04-01T09:28:19.785Z,1.40
2023-04-01T09:33:47.984Z,1.30
2023-04-01T09:38:58.504Z,1.75
2023-04-01T09:44:04.282Z,1.73
2023-04-01T09:49:32.756Z,1.80
2023-04-01T09:54:56.326Z,1.42
2023-04-01T10:00:21.979Z,2.03
2023-04-01T10:05:54.198Z,1.40
2023-04-01T10:11:29.553Z,1.30
2023-04-01T10:17:10.012Z,1.23
2023-04-01T10:22:52.369Z,1.60
2023-04-01T10:28:22.190Z,1.30
2023-04-01T10:34:02.784Z,1.25
2023-04-01T10:39:34.003Z,1.33
2023-04-01T10:45:17.901Z,1.00
2023-04-01T10:50:48.601Z,1.17
2023-04-01T10:56:34.573Z,0.93
2023-04-01T11:02:10.837Z,1.10
2023-04-01T11:08:02.754Z,1.20
2023-04-01T11:13:46.161Z,1.50
2023-04-01T11:19:20.008Z,1.10
2023-04-01T11:24:44.080Z,1.30
2023-04-01T11:30:01.125Z,1.40
2023-04-01T11:35:30.112Z,1.33
2023-04-01T11:40:41.061Z,1.10
2023-04-01T11:45:50.734Z,1.30
2023-04-01T11:51:11.258Z,1.50
2023-04-01T11:56:33.113Z,1.20
2023-04-01T12:01:45.072Z,1.10
2023-04-01T12:06:52.615Z,1.10
2023-04-01T12:12:10.155Z,0.90
2023-04-01T12:17:26.307Z,0.95
2023-04-01T12:22:44.522Z,1.10
2023-04-01T12:27:58.554Z,1.10
2023-04-01T12:33:17.128Z,0.88
2023-04-01T12:38:31.551Z,0.75
2023-04-01T12:44:09.882Z,1.00
2023-04-01T12:49:49.148Z,1.00
2023-04-01T12:55:23.065Z,1.25
2023-04-01T13:00:44.913Z,0.80
2023-04-01T13:06:26.314Z,0.80
2023-04-01T13:11:41.289Z,1.00
2023-04-01T13:16:51.754Z,0.93
2023-04-01T13:22:05.959Z,1.00
2023-04-01T13:27:15.767Z,1.10
2023-04-01T13:32:40.708Z,0.98
2023-04-01T13:37:58.666Z,1.40
2023-04-01T13:43:05.223Z,1.55
2023-04-01T13:48:29.589Z,1.70
2023-04-01T13:54:01.696Z,1.35
2023-04-01T13:59:40.578Z,1.60
2023-04-01T14:05:10.650Z,1.80
2023-04-01T14:10:24.214Z,1.80
2023-04-01T14:15:54.182Z,2.47
2023-04-01T14:21:27.915Z,2.20
2023-04-01T14:27:03.534Z,3.60
2023-04-01T14:32:17.510Z,3.22
2023-04-01T14:37:57.669Z,3.03
2023-04-01T14:43:23.118Z,3.05
2023-04-01T14:48:36.220Z,2.90
2023-04-01T14:53:44.283Z,3.40
2023-04-01T14:58:48.194Z,3.33
2023-04-01T15:04:03.491Z,3.67
2023-04-01T15:09:13.828Z,4.38
2023-04-01T15:14:38.811Z,4.90
2023-04-01T15:19:58.648Z,4.45
2023-04-01T15:25:22.533Z,3.38
2023-04-01T15:30:38.936Z,4.07
2023-04-01T15:35:49.101Z,3.47
2023-04-01T15:40:57.817Z,3.88
2023-04-01T15:46:16.582Z,3.90
2023-04-01T15:51:37.794Z,4.05
2023-04-01T15:56:54.878Z,3.42
2023-04-01T16:07:17.310Z,3.63
2023-04-01T16:12:26.854Z,3.03
2023-04-01T16:17:54.167Z,2.88
2023-04-01T16:23:03.313Z,3.88
2023-04-01T16:28:20.796Z,3.42
2023-04-01T16:33:29.183Z,3.85
2023-04-01T16:38:40.895Z,3.42
2023-04-01T16:43:46.273Z,3.10
2023-04-01T16:49:01.457Z,4.53
2023-04-01T16:54:13.382Z,3.80
2023-04-01T16:59:22.573Z,3.80
2023-04-01T17:04:35.894Z,3.38
2023-04-01T17:09:57.417Z,3.97
2023-04-01T17:15:08.796Z,3.50
2023-04-01T17:20:26.142Z,4.25
2023-04-01T17:25:41.183Z,4.30
2023-04-01T17:30:54.303Z,3.88
2023-04-01T17:36:00.932Z,3.70
2023-04-01T17:41:11.942Z,4.00
2023-04-01T17:46:33.039Z,4.60
2023-04-01T17:51:41.174Z,4.15
2023-04-01T17:56:59.852Z,5.05
2023-04-01T18:02:12.990Z,4.30
2023-04-01T18:07:50.614Z,4.45
2023-04-01T18:13:16.182Z,3.78
2023-04-01T18:18:36.728Z,4.22
2023-04-01T18:23:52.029Z,4.07
2023-04-01T18:29:04.953Z,4.70
2023-04-01T18:34:13.980Z,4.57
2023-04-01T18:39:19.880Z,4.40
2023-04-01T18:44:32.238Z,4.70
2023-04-01T18:49:42.996Z,3.95
2023-04-01T18:54:51.010Z,4.25
2023-04-01T19:00:04.554Z,3.60
2023-04-01T19:05:13.497Z,3.92
2023-04-01T19:10:21.690Z,3.17
2023-04-01T19:15:40.106Z,3.72
2023-04-01T19:20:48.316Z,2.92
2023-04-01T19:25:52.504Z,2.92
2023-04-01T19:31:01.085Z,3.50
2023-04-01T19:36:12.443Z,3.47
2023-04-01T19:41:38.815Z,3.35
2023-04-01T19:46:46.931Z,2.73
2023-04-01T19:51:57.036Z,3.50
2023-04-01T19:57:10.337Z,3.63
2023-04-01T20:02:45.641Z,3.45
2023-04-01T20:07:56.065Z,2.97
2023-04-01T20:13:06.140Z,3.28
2023-04-01T20:18:17.179Z,3.40
2023-04-01T20:23:34.441Z,2.80
2023-04-01T20:28:44.581Z,3.00
2023-04-01T20:34:13.129Z,2.95
2023-04-01T20:39:51.054Z,2.88
2023-04-01T20:45:08.286Z,2.80
2023-04-01T20:50:22.366Z,3.30
2023-04-01T20:55:54.347Z,2.58
2023-04-01T21:01:08.437Z,2.55
2023-04-01T21:06:44.539Z,2.15
2023-04-01T21:11:56.280Z,2.43
2023-04-01T21:17:08.811Z,3.03
2023-04-01T21:22:42.150Z,3.00
2023-04-01T21:28:01.873Z,2.15
2023-04-01T21:33:22.123Z,2.70
2023-04-01T21:38:41.301Z,2.50
2023-04-01T21:44:19.453Z,2.92
2023-04-01T21:49:49.491Z,2.80
2023-04-01T21:55:25.640Z,2.17
2023-04-01T22:00:33.116Z,2.20
2023-04-01T22:05:41.597Z,2.65
2023-04-01T22:10:53.484Z,2.33
2023-04-01T22:16:06.037Z,2.60
2023-04-01T22:21:14.180Z,2.67
2023-04-01T22:26:25.396Z,2.33
2023-04-01T22:31:31.738Z,3.03
2023-04-01T22:36:45.963Z,1.77
2023-04-01T22:42:02.122Z,1.92
2023-04-01T22:47:09.312Z,2.53
2023-04-01T22:52:21.411Z,2.42
2023-04-01T22:57:41.075Z,2.50
2023-04-01T23:02:48.383Z,2.60
2023-04-01T23:08:01.416Z,2.83
2023-04-01T23:13:06.464Z,2.60
2023-04-01T23:18:19.736Z,2.97
2023-04-01T23:23:32.052Z,2.47
2023-04-01T23:28:45.553Z,2.38
2023-04-01T23:33:55.197Z,2.22
2023-04-01T23:38:58.839Z,1.90
2023-04-01T23:44:06.308Z,2.58
2023-04-01T23:49:14.282Z,2.40
2023-04-01T23:54:24.159Z,2.90
2023-04-01T23:59:31.719Z,2.50
